Time;durP1;ratioP1;P1;durP2;ratioP2;P2;SDS_P1;SDS_P2;PMS_P1;PMS_P2;Temp;Humidity;BMP_temperature;BMP_pressure;BME280_temperature;BME280_humidity;BME280_pressure;Samples;Min_cycle;Max_cycle;Signal;HPM_P1;HPM_P2
2023/06/26 00:00:08;;;;;;;11.63;8.13;;;18.00;99.90;;;;;;6228620;28;20049;-79
2023/06/26 00:03:14;;;;;;;8.20;7.40;;;17.90;99.90;;;;;;6227385;28;20068;-78
2023/06/26 00:06:16;;;;;;;8.65;7.78;;;17.90;99.90;;;;;;6227243;28;20060;-78
2023/06/26 00:09:18;;;;;;;11.27;7.88;;;17.80;99.90;;;;;;6227662;28;20050;-77
2023/06/26 00:12:21;;;;;;;10.18;7.30;;;17.80;99.90;;;;;;6225684;28;20060;-81
2023/06/26 00:15:22;;;;;;;9.50;8.48;;;17.70;99.90;;;;;;6234836;28;20050;-80
2023/06/26 00:18:24;;;;;;;16.73;9.77;;;17.60;99.90;;;;;;6228040;28;20049;-81
2023/06/26 00:21:27;;;;;;;10.15;7.72;;;17.60;99.90;;;;;;6232392;28;20118;-79
2023/06/26 00:24:28;;;;;;;10.73;8.65;;;17.50;99.90;;;;;;6231059;28;20237;-81
2023/06/26 00:27:31;;;;;;;12.50;8.23;;;17.50;99.90;;;;;;6226066;28;20046;-79
2023/06/26 00:30:33;;;;;;;11.73;9.88;;;17.40;99.90;;;;;;6223824;28;20405;-82
2023/06/26 00:33:35;;;;;;;11.23;8.00;;;17.40;99.90;;;;;;6224897;28;20046;-82
2023/06/26 00:36:36;;;;;;;9.45;8.02;;;17.20;99.90;;;;;;6225116;28;20061;-81
2023/06/26 00:39:38;;;;;;;10.38;8.63;;;17.20;99.90;;;;;;6227604;28;20053;-81
2023/06/26 00:42:41;;;;;;;8.25;7.30;;;17.10;99.90;;;;;;6232761;28;20049;-79
2023/06/26 00:45:43;;;;;;;9.20;8.27;;;17.20;99.90;;;;;;6204942;28;20122;-81
2023/06/26 00:48:48;;;;;;;11.55;8.40;;;17.20;99.90;;;;;;6223211;28;20054;-82
2023/06/26 00:51:51;;;;;;;10.20;8.20;;;17.10;99.90;;;;;;6229094;28;20069;-80
2023/06/26 00:54:53;;;;;;;9.98;8.30;;;17.10;99.90;;;;;;6228326;28;20052;-81
2023/06/26 00:57:56;;;;;;;8.65;7.85;;;17.10;99.90;;;;;;6226127;28;20061;-80
2023/06/26 01:01:00;;;;;;;10.38;9.02;;;17.00;99.90;;;;;;6226057;28;20050;-81
2023/06/26 01:04:02;;;;;;;9.27;7.35;;;16.90;99.90;;;;;;6225564;28;20050;-81
2023/06/26 01:07:07;;;;;;;13.75;8.90;;;16.80;99.90;;;;;;6224896;28;20042;-82
2023/06/26 01:10:09;;;;;;;9.85;8.23;;;16.80;99.90;;;;;;6214280;28;20054;-81
2023/06/26 01:13:13;;;;;;;12.48;9.32;;;16.80;99.90;;;;;;6200281;28;20061;-82
2023/06/26 01:16:19;;;;;;;10.88;8.00;;;16.70;99.90;;;;;;6203610;28;20054;-81
2023/06/26 01:19:25;;;;;;;13.25;9.95;;;16.70;99.90;;;;;;6203892;28;20054;-79
2023/06/26 01:22:44;;;;;;;9.95;8.75;;;16.70;99.90;;;;;;6201310;28;20058;-80
2023/06/26 01:25:57;;;;;;;12.52;10.93;;;16.70;99.90;;;;;;6201406;28;20521;-80
2023/06/26 01:29:02;;;;;;;10.63;8.68;;;16.60;99.90;;;;;;6202332;28;20050;-81
2023/06/26 01:32:05;;;;;;;10.35;8.07;;;16.60;99.90;;;;;;6202581;28;20043;-80
2023/06/26 01:35:09;;;;;;;16.20;10.95;;;16.60;99.90;;;;;;6203270;28;20047;-81
2023/06/26 01:38:16;;;;;;;12.57;9.38;;;16.50;99.90;;;;;;6203220;28;20050;-82
2023/06/26 01:41:18;;;;;;;9.75;8.10;;;16.50;99.90;;;;;;6203299;28;20069;-81
2023/06/26 01:44:27;;;;;;;8.10;7.30;;;16.50;99.90;;;;;;6216684;28;20046;-80
2023/06/26 01:47:31;;;;;;;9.00;7.80;;;16.50;99.90;;;;;;6231499;28;20452;-81
2023/06/26 01:50:36;;;;;;;11.05;8.25;;;16.50;99.90;;;;;;6231591;28;20054;-80
2023/06/26 01:53:45;;;;;;;10.93;8.80;;;16.50;99.90;;;;;;6229810;28;20068;-80
2023/06/26 01:56:52;;;;;;;10.50;8.15;;;16.50;99.90;;;;;;6229190;28;20141;-82
2023/06/26 01:59:57;;;;;;;14.43;8.55;;;16.50;99.90;;;;;;6229652;28;20042;-81
2023/06/26 02:02:58;;;;;;;9.13;8.23;;;16.40;99.90;;;;;;6232470;28;20440;-81
2023/06/26 02:06:00;;;;;;;9.60;8.40;;;16.40;99.90;;;;;;6229965;28;20448;-81
2023/06/26 02:09:03;;;;;;;9.35;8.00;;;16.40;99.90;;;;;;6229320;28;20416;-79
2023/06/26 02:12:05;;;;;;;10.75;9.07;;;16.30;99.90;;;;;;6228611;28;20141;-81
2023/06/26 02:15:10;;;;;;;11.30;8.70;;;16.20;99.90;;;;;;6230230;28;20513;-80
2023/06/26 02:18:11;;;;;;;9.88;8.88;;;16.30;99.90;;;;;;6228712;28;20061;-82
2023/06/26 02:21:14;;;;;;;11.25;9.77;;;16.20;99.90;;;;;;6227269;28;20054;-82
2023/06/26 02:24:16;;;;;;;11.07;8.48;;;16.20;99.90;;;;;;6228986;28;20389;-81
2023/06/26 02:27:17;;;;;;;11.45;9.68;;;16.20;99.90;;;;;;6228974;28;20057;-80
2023/06/26 02:30:20;;;;;;;9.10;7.22;;;16.20;99.90;;;;;;6229080;28;20516;-79
2023/06/26 02:33:22;;;;;;;12.27;9.45;;;16.20;99.90;;;;;;6229256;28;20058;-83
2023/06/26 02:36:24;;;;;;;10.88;8.10;;;16.20;99.90;;;;;;6218327;28;20382;-82
2023/06/26 02:39:25;;;;;;;10.35;7.07;;;16.20;99.90;;;;;;6203840;28;20042;-80
2023/06/26 02:42:27;;;;;;;10.00;8.43;;;16.10;99.90;;;;;;6206483;28;20050;-79
2023/06/26 02:45:30;;;;;;;9.20;8.25;;;16.10;99.90;;;;;;6205756;28;20057;-79
2023/06/26 02:48:32;;;;;;;10.48;8.70;;;16.10;99.90;;;;;;6205616;28;20051;-82
2023/06/26 02:51:34;;;;;;;12.57;9.13;;;16.10;99.90;;;;;;6205663;28;20050;-82
2023/06/26 02:54:35;;;;;;;11.00;8.27;;;16.10;99.90;;;;;;6203108;28;20051;-81
2023/06/26 02:57:37;;;;;;;10.95;8.32;;;16.20;99.90;;;;;;6204429;28;20054;-82
2023/06/26 03:00:41;;;;;;;10.40;7.97;;;16.30;99.90;;;;;;6205341;28;20057;-81
2023/06/26 03:03:43;;;;;;;12.45;9.30;;;16.40;99.90;;;;;;6205292;28;20054;-81
2023/06/26 03:06:44;;;;;;;10.57;8.88;;;16.40;99.90;;;;;;6203194;28;20071;-81
2023/06/26 03:09:46;;;;;;;9.73;7.45;;;16.40;99.90;;;;;;6204020;28;20046;-80
2023/06/26 03:12:48;;;;;;;15.35;8.98;;;16.30;99.90;;;;;;6203912;28;20059;-80
2023/06/26 03:15:51;;;;;;;22.20;10.15;;;16.30;99.90;;;;;;6203168;28;20050;-81
2023/06/26 03:18:52;;;;;;;13.55;9.95;;;16.20;99.90;;;;;;6203179;28;20061;-79
2023/06/26 03:21:54;;;;;;;10.80;8.95;;;16.20;99.90;;;;;;6203357;28;20046;-81
2023/06/26 03:24:56;;;;;;;13.57;8.32;;;16.20;99.90;;;;;;6202901;28;20051;-82
2023/06/26 03:27:58;;;;;;;16.05;8.57;;;16.10;99.90;;;;;;6202904;28;20050;-80
2023/06/26 03:31:01;;;;;;;9.60;7.63;;;16.00;99.90;;;;;;6201257;28;20050;-80
2023/06/26 03:34:02;;;;;;;12.77;8.20;;;16.10;99.90;;;;;;6201625;28;20536;-81
2023/06/26 03:37:05;;;;;;;10.65;8.30;;;16.10;99.90;;;;;;6203007;28;20054;-79
2023/06/26 03:40:07;;;;;;;10.52;9.00;;;16.10;99.90;;;;;;6201744;28;20045;-80
2023/06/26 03:43:09;;;;;;;10.38;8.35;;;16.10;99.90;;;;;;6201610;28;20120;-81
2023/06/26 03:46:12;;;;;;;9.02;7.68;;;16.00;99.90;;;;;;6201883;28;20046;-80
2023/06/26 03:49:14;;;;;;;14.55;10.55;;;15.90;99.90;;;;;;6200111;28;20057;-80
2023/06/26 03:52:16;;;;;;;10.73;9.07;;;15.90;99.90;;;;;;6201317;28;20043;-79
2023/06/26 03:55:18;;;;;;;10.20;8.38;;;16.00;99.90;;;;;;6201352;28;20042;-78
2023/06/26 03:58:20;;;;;;;9.55;8.52;;;16.00;99.90;;;;;;6201675;28;20042;-81
2023/06/26 04:01:23;;;;;;;13.85;8.85;;;16.10;99.90;;;;;;6201474;28;20391;-79
2023/06/26 04:04:25;;;;;;;8.93;8.02;;;16.20;99.90;;;;;;6202930;28;20054;-79
2023/06/26 04:07:26;;;;;;;9.82;8.27;;;16.30;99.90;;;;;;6203508;28;20057;-80
2023/06/26 04:10:28;;;;;;;9.80;8.85;;;16.50;99.90;;;;;;6203384;28;20052;-80
2023/06/26 04:13:30;;;;;;;10.82;8.38;;;16.60;99.90;;;;;;6203999;28;20070;-80
2023/06/26 04:16:33;;;;;;;9.95;8.35;;;16.60;99.90;;;;;;6205408;28;20050;-79
2023/06/26 04:19:35;;;;;;;8.60;7.72;;;16.90;99.90;;;;;;6204000;28;20046;-78
2023/06/26 04:22:37;;;;;;;9.85;8.60;;;17.40;99.90;;;;;;6204846;28;20054;-79
2023/06/26 04:25:39;;;;;;;8.23;7.15;;;18.10;99.90;;;;;;6204903;28;20066;-80
2023/06/26 04:28:41;;;;;;;9.18;8.13;;;18.90;99.90;;;;;;6207104;28;20050;-79
2023/06/26 04:31:46;;;;;;;11.07;7.97;;;19.40;99.90;;;;;;6222000;28;20053;-80
2023/06/26 04:34:47;;;;;;;11.30;7.82;;;19.70;99.90;;;;;;6227505;28;20052;-80
2023/06/26 04:37:49;;;;;;;9.25;8.35;;;20.10;99.90;;;;;;6227207;28;20117;-79
2023/06/26 04:40:51;;;;;;;13.57;7.80;;;20.70;99.90;;;;;;6228309;28;20054;-80
2023/06/26 04:43:52;;;;;;;11.90;8.43;;;21.50;99.90;;;;;;6223717;28;20041;-79
2023/06/26 04:46:55;;;;;;;9.82;7.50;;;22.20;99.90;;;;;;6200201;28;20046;-79
2023/06/26 04:49:57;;;;;;;12.43;8.35;;;23.00;98.60;;;;;;6200712;28;20049;-80
2023/06/26 04:52:59;;;;;;;12.02;7.43;;;23.60;96.80;;;;;;6200843;28;20073;-80
2023/06/26 04:56:00;;;;;;;8.85;7.85;;;24.40;94.80;;;;;;6199292;28;20458;-79
2023/06/26 04:59:03;;;;;;;7.82;7.03;;;25.10;92.70;;;;;;6198437;28;20056;-80
2023/06/26 05:02:06;;;;;;;9.98;7.03;;;25.70;91.00;;;;;;6209037;28;20072;-77
2023/06/26 05:05:08;;;;;;;14.40;6.97;;;26.40;88.00;;;;;;6223951;28;20050;-78
2023/06/26 05:08:17;;;;;;;9.20;7.03;;;27.30;83.80;;;;;;6223857;28;20520;-77
2023/06/26 05:11:19;;;;;;;10.88;7.53;;;28.20;78.30;;;;;;6223887;28;20042;-78
2023/06/26 05:14:20;;;;;;;11.32;7.65;;;28.80;75.50;;;;;;6224249;28;20064;-78
2023/06/26 05:17:23;;;;;;;8.73;6.85;;;29.20;72.40;;;;;;6226504;28;20049;-78
2023/06/26 05:20:25;;;;;;;8.20;7.40;;;29.50;69.80;;;;;;6228113;28;20056;-78
2023/06/26 05:23:31;;;;;;;12.05;6.78;;;29.70;68.30;;;;;;6226930;28;20062;-78
2023/06/26 05:26:33;;;;;;;8.18;7.43;;;29.90;67.00;;;;;;6226953;28;20531;-78
2023/06/26 05:29:35;;;;;;;8.50;7.60;;;30.50;66.00;;;;;;6228419;28;20048;-78
2023/06/26 05:32:40;;;;;;;7.93;7.13;;;30.80;63.70;;;;;;6228377;28;20050;-78
2023/06/26 05:35:43;;;;;;;9.00;7.53;;;31.10;62.30;;;;;;6229018;28;20655;-77
2023/06/26 05:38:46;;;;;;;7.30;6.70;;;31.50;61.10;;;;;;6200408;28;20497;-78
2023/06/26 05:41:48;;;;;;;7.65;6.85;;;31.80;59.40;;;;;;6213160;28;20050;-77
2023/06/26 05:44:50;;;;;;;9.63;7.05;;;31.90;58.10;;;;;;6216078;28;20038;-78
2023/06/26 05:47:53;;;;;;;7.75;6.38;;;32.10;57.00;;;;;;6212882;28;20132;-78
2023/06/26 05:50:55;;;;;;;8.68;6.50;;;31.60;56.40;;;;;;6211177;28;20065;-76
2023/06/26 05:53:57;;;;;;;8.57;7.53;;;30.40;57.20;;;;;;6217883;28;20053;-82
2023/06/26 05:57:00;;;;;;;8.60;7.13;;;29.50;58.80;;;;;;6214775;28;20077;-80
2023/06/26 06:00:03;;;;;;;10.20;7.75;;;28.70;60.30;;;;;;6215722;28;20112;-79
2023/06/26 06:03:06;;;;;;;9.20;7.47;;;28.10;61.00;;;;;;6217570;28;20061;-78
2023/06/26 06:06:07;;;;;;;9.10;6.60;;;27.50;62.00;;;;;;6211340;28;20050;-79
2023/06/26 06:09:09;;;;;;;16.27;7.90;;;27.10;63.40;;;;;;6194291;28;20068;-80
2023/06/26 06:12:11;;;;;;;8.10;7.32;;;26.70;63.80;;;;;;6213883;28;20080;-80
2023/06/26 06:15:13;;;;;;;12.23;7.90;;;26.30;64.80;;;;;;6213862;28;20466;-79
2023/06/26 06:18:16;;;;;;;11.68;7.95;;;26.00;66.00;;;;;;6205818;28;20054;-78
2023/06/26 06:21:17;;;;;;;10.63;7.93;;;25.70;67.10;;;;;;6190671;28;20060;-79
2023/06/26 06:24:19;;;;;;;9.50;7.43;;;25.70;67.50;;;;;;6212805;28;20057;-79
2023/06/26 06:27:21;;;;;;;8.20;7.13;;;25.70;67.90;;;;;;6212765;28;20477;-80
2023/06/26 06:30:23;;;;;;;14.55;9.10;;;25.70;68.40;;;;;;6212533;28;20045;-80
2023/06/26 06:33:26;;;;;;;11.30;8.25;;;25.60;68.60;;;;;;6213265;28;20049;-80
2023/06/26 06:36:28;;;;;;;13.65;8.05;;;25.60;69.10;;;;;;6213329;28;20419;-79
2023/06/26 06:39:29;;;;;;;9.18;7.38;;;25.80;69.30;;;;;;6212632;28;20048;-79
2023/06/26 06:42:31;;;;;;;8.82;7.93;;;25.80;69.40;;;;;;6212064;28;20049;-80
2023/06/26 06:45:33;;;;;;;9.07;6.88;;;26.00;69.40;;;;;;6212911;28;20049;-79
2023/06/26 06:48:36;;;;;;;8.52;6.80;;;26.10;69.40;;;;;;6214988;28;20084;-79
2023/06/26 06:51:37;;;;;;;9.15;6.93;;;26.20;69.40;;;;;;6214671;28;20069;-79
2023/06/26 06:54:53;;;;;;;9.13;6.47;;;26.40;69.20;;;;;;6215351;28;20075;-79
2023/06/26 06:57:55;;;;;;;8.55;7.47;;;26.60;69.20;;;;;;6213709;28;20081;-79
2023/06/26 07:00:57;;;;;;;10.20;7.30;;;26.70;68.40;;;;;;6216008;28;20064;-80
2023/06/26 07:04:00;;;;;;;7.30;6.60;;;26.80;68.40;;;;;;6215051;28;20060;-79
2023/06/26 07:07:01;;;;;;;6.93;6.13;;;26.80;68.60;;;;;;6214174;28;20042;-78
2023/06/26 07:10:06;;;;;;;8.80;7.45;;;26.90;68.60;;;;;;6213740;28;20497;-79
2023/06/26 07:13:08;;;;;;;8.93;6.40;;;27.00;67.80;;;;;;6214042;28;20058;-80
2023/06/26 07:16:11;;;;;;;7.85;6.95;;;27.10;67.20;;;;;;6213704;28;20049;-78
2023/06/26 07:19:14;;;;;;;7.82;6.35;;;27.20;66.00;;;;;;6215534;28;20086;-78
2023/06/26 07:22:16;;;;;;;7.28;6.60;;;27.20;65.40;;;;;;6217063;28;20056;-77
2023/06/26 07:25:18;;;;;;;8.85;5.80;;;27.20;65.40;;;;;;6217027;28;23304;-78
2023/06/26 07:28:19;;;;;;;6.72;5.60;;;27.40;65.20;;;;;;6211463;28;20057;-77
2023/06/26 07:31:21;;;;;;;6.47;5.88;;;27.60;64.90;;;;;;6212730;28;20515;-78
2023/06/26 07:34:24;;;;;;;7.15;6.45;;;27.80;64.30;;;;;;6210706;28;20046;-77
2023/06/26 07:37:26;;;;;;;9.70;6.60;;;27.80;63.30;;;;;;6211114;28;20053;-78
2023/06/26 07:40:28;;;;;;;7.55;6.28;;;27.70;63.40;;;;;;6210471;28;20049;-78
2023/06/26 07:43:30;;;;;;;6.05;5.53;;;27.80;63.30;;;;;;6211074;28;20507;-77
2023/06/26 07:46:32;;;;;;;5.65;5.13;;;27.90;62.70;;;;;;6212183;28;20061;-76
2023/06/26 07:49:35;;;;;;;5.78;5.18;;;28.00;63.00;;;;;;6211927;28;20065;-77
2023/06/26 07:52:37;;;;;;;9.38;6.20;;;28.10;63.50;;;;;;6212766;28;20498;-77
2023/06/26 07:55:39;;;;;;;7.90;5.55;;;28.30;62.50;;;;;;6210634;28;20053;-77
2023/06/26 07:58:40;;;;;;;6.63;5.53;;;28.50;62.30;;;;;;6209778;28;20042;-76
2023/06/26 08:01:42;;;;;;;6.57;5.90;;;28.60;62.00;;;;;;6207953;28;20046;-76
2023/06/26 08:04:45;;;;;;;7.30;5.93;;;28.70;62.10;;;;;;6211852;28;20062;-77
2023/06/26 08:07:47;;;;;;;6.30;5.70;;;28.60;62.40;;;;;;6210347;28;20107;-77
2023/06/26 08:10:49;;;;;;;6.78;5.55;;;28.60;62.80;;;;;;6213963;28;20046;-77
2023/06/26 08:13:50;;;;;;;6.82;6.13;;;28.70;62.60;;;;;;6210765;28;20563;-77
2023/06/26 08:16:52;;;;;;;9.85;6.22;;;28.70;62.50;;;;;;6198787;28;20042;-77
2023/06/26 08:19:55;;;;;;;6.53;5.88;;;29.20;62.40;;;;;;6205894;28;20524;-76
2023/06/26 08:22:57;;;;;;;6.82;6.18;;;30.00;61.50;;;;;;6213511;28;20053;-77
2023/06/26 08:25:59;;;;;;;10.77;6.15;;;30.90;60.00;;;;;;6222443;28;20050;-77
2023/06/26 08:29:00;;;;;;;11.68;6.20;;;31.60;58.40;;;;;;6223697;28;20451;-77
2023/06/26 08:32:03;;;;;;;7.30;6.50;;;31.60;57.80;;;;;;6222767;28;20042;-77
2023/06/26 08:35:10;;;;;;;7.35;6.10;;;32.30;57.10;;;;;;6222738;28;20406;-77
2023/06/26 08:38:11;;;;;;;7.10;6.43;;;32.50;55.70;;;;;;6213448;28;20069;-78
2023/06/26 08:41:13;;;;;;;7.57;6.88;;;32.60;55.70;;;;;;6197820;28;20053;-77
2023/06/26 08:44:15;;;;;;;6.40;5.88;;;32.20;55.30;;;;;;6198755;28;20055;-77
2023/06/26 08:47:16;;;;;;;7.40;5.45;;;31.60;55.60;;;;;;6197761;28;20053;-77
2023/06/26 08:50:23;;;;;;;7.85;5.95;;;31.60;56.80;;;;;;6197445;28;20047;-77
2023/06/26 08:53:34;;;;;;;9.27;5.70;;;32.20;56.00;;;;;;6198410;28;20053;-77
2023/06/26 08:56:38;;;;;;;6.13;5.53;;;32.60;55.70;;;;;;6198317;28;20065;-77
2023/06/26 08:59:40;;;;;;;6.85;5.88;;;32.60;54.80;;;;;;6197070;28;20042;-77
2023/06/26 09:02:42;;;;;;;7.22;5.30;;;32.70;54.00;;;;;;6197719;28;20046;-77
2023/06/26 09:05:45;;;;;;;7.45;5.38;;;32.80;54.00;;;;;;6198136;28;20054;-77
2023/06/26 09:08:47;;;;;;;5.75;5.05;;;33.20;53.20;;;;;;6198386;28;20050;-77
2023/06/26 09:11:49;;;;;;;6.32;5.72;;;33.10;52.40;;;;;;6197383;28;20042;-77
2023/06/26 09:14:51;;;;;;;7.53;5.38;;;32.60;53.00;;;;;;6196916;28;20046;-77
2023/06/26 09:17:57;;;;;;;5.32;4.82;;;32.60;53.50;;;;;;6198779;28;20050;-78
2023/06/26 09:21:00;;;;;;;6.20;5.70;;;32.50;53.80;;;;;;6197526;28;20053;-76
2023/06/26 09:24:02;;;;;;;6.50;5.85;;;32.10;54.20;;;;;;6197037;28;20070;-78
2023/06/26 09:27:05;;;;;;;5.88;5.13;;;31.70;54.90;;;;;;6196908;28;20154;-78
2023/06/26 09:30:08;;;;;;;9.32;6.20;;;31.70;55.40;;;;;;6196673;28;20046;-78
2023/06/26 09:33:15;;;;;;;6.72;6.10;;;31.60;55.30;;;;;;6196933;28;20053;-77
2023/06/26 09:36:21;;;;;;;8.73;5.60;;;31.30;56.10;;;;;;6197340;28;20054;-78
2023/06/26 09:39:23;;;;;;;12.55;7.22;;;31.50;56.10;;;;;;6195263;28;20062;-78
2023/06/26 09:42:25;;;;;;;10.50;5.53;;;31.20;56.00;;;;;;6212449;28;20056;-77
2023/06/26 09:45:27;;;;;;;7.32;6.07;;;31.10;56.90;;;;;;6220774;28;20424;-77
2023/06/26 09:48:29;;;;;;;6.68;6.07;;;31.30;56.90;;;;;;6221436;28;20053;-77
2023/06/26 09:51:33;;;;;;;6.30;5.80;;;31.50;56.70;;;;;;6222602;28;20456;-78
2023/06/26 09:54:36;;;;;;;8.52;6.25;;;31.80;56.10;;;;;;6227729;28;20050;-78
2023/06/26 09:57:39;;;;;;;7.93;6.32;;;31.90;56.20;;;;;;6226778;28;20054;-79
2023/06/26 10:00:41;;;;;;;7.35;6.15;;;31.80;56.20;;;;;;6227574;28;20050;-78
2023/06/26 10:03:43;;;;;;;6.25;5.65;;;31.80;56.70;;;;;;6230909;28;20046;-77
2023/06/26 10:06:48;;;;;;;8.23;5.57;;;32.10;56.60;;;;;;6231306;28;20057;-79
2023/06/26 10:09:53;;;;;;;6.50;5.90;;;32.60;55.60;;;;;;6232920;28;20046;-79
2023/06/26 10:13:04;;;;;;;6.70;5.70;;;32.80;55.20;;;;;;6234125;28;20101;-79
2023/06/26 10:16:09;;;;;;;8.55;5.95;;;33.00;55.00;;;;;;6232356;28;20558;-78
2023/06/26 10:19:12;;;;;;;6.32;5.65;;;33.20;54.60;;;;;;6232637;28;20064;-78
2023/06/26 10:22:17;;;;;;;6.63;5.97;;;33.30;54.30;;;;;;6232840;28;20049;-79
2023/06/26 10:25:20;;;;;;;6.32;5.30;;;33.40;53.70;;;;;;6232607;28;20077;-79
2023/06/26 10:28:23;;;;;;;6.38;5.68;;;33.60;53.70;;;;;;6231379;28;20148;-78
2023/06/26 10:31:28;;;;;;;8.50;5.57;;;33.60;53.40;;;;;;6245093;28;20050;-78
2023/06/26 10:34:31;;;;;;;11.80;4.65;;;33.60;52.60;;;;;;6231634;28;20049;-78
2023/06/26 10:37:44;;;;;;;9.32;5.90;;;33.40;52.80;;;;;;6230513;28;20053;-78
2023/06/26 10:40:49;;;;;;;5.93;4.88;;;33.60;52.80;;;;;;6213138;28;20058;-78
2023/06/26 10:43:52;;;;;;;7.30;5.47;;;34.00;52.10;;;;;;6221213;28;20048;-77
2023/06/26 10:46:56;;;;;;;6.07;5.57;;;34.50;51.20;;;;;;6228139;28;20050;-77
2023/06/26 10:50:16;;;;;;;5.90;5.40;;;34.80;51.10;;;;;;6225406;28;20049;-77
2023/06/26 10:53:26;;;;;;;9.07;5.65;;;34.70;50.70;;;;;;6225307;28;20100;-77
2023/06/26 10:56:45;;;;;;;7.70;5.45;;;35.00;50.10;;;;;;6224739;28;20058;-78
2023/06/26 10:59:46;;;;;;;7.18;6.47;;;34.80;49.80;;;;;;6223993;28;20054;-77
2023/06/26 11:02:49;;;;;;;8.02;5.93;;;34.50;50.20;;;;;;6227629;28;20497;-76
2023/06/26 11:06:10;;;;;;;7.57;5.22;;;34.10;50.30;;;;;;6223734;28;20045;-78
2023/06/26 11:09:16;;;;;;;6.18;5.40;;;33.50;51.10;;;;;;6227584;28;20519;-78
2023/06/26 11:12:36;;;;;;;6.65;5.28;;;33.30;51.90;;;;;;6227677;28;20056;-78
2023/06/26 11:15:38;;;;;;;5.93;5.32;;;33.60;51.20;;;;;;6230929;28;20054;-78
2023/06/26 11:18:40;;;;;;;5.45;4.90;;;33.40;51.60;;;;;;6228901;28;20060;-78
2023/06/26 11:21:42;;;;;;;7.57;5.90;;;33.40;51.10;;;;;;6209858;28;20127;-77
2023/06/26 11:24:45;;;;;;;5.80;5.20;;;33.70;50.30;;;;;;6197627;28;20055;-77
2023/06/26 11:27:47;;;;;;;8.00;4.65;;;33.50;49.60;;;;;;6199104;28;20054;-77
2023/06/26 11:30:49;;;;;;;6.07;4.35;;;33.30;50.10;;;;;;6200073;28;20536;-78
2023/06/26 11:33:50;;;;;;;4.65;4.05;;;33.50;49.80;;;;;;6198953;28;20054;-77
2023/06/26 11:36:52;;;;;;;6.85;5.20;;;33.60;49.50;;;;;;6212347;28;20053;-77
2023/06/26 11:39:56;;;;;;;8.80;4.43;;;33.80;48.90;;;;;;6225120;28;20050;-77
2023/06/26 11:42:59;;;;;;;12.77;5.85;;;33.70;48.80;;;;;;6220210;28;20512;-77
2023/06/26 11:46:01;;;;;;;4.80;4.40;;;33.80;48.30;;;;;;6211449;28;20054;-77
2023/06/26 11:49:04;;;;;;;8.15;4.35;;;33.70;48.00;;;;;;6200673;28;20058;-78
2023/06/26 11:52:06;;;;;;;6.13;4.18;;;33.60;48.10;;;;;;6200825;28;20045;-78
2023/06/26 11:55:10;;;;;;;5.45;4.22;;;33.90;48.10;;;;;;6201307;28;20050;-78
2023/06/26 11:58:12;;;;;;;8.50;4.13;;;34.20;47.30;;;;;;6201220;28;20049;-78
2023/06/26 12:01:16;;;;;;;3.95;3.55;;;34.50;46.70;;;;;;6201447;28;20054;-78
2023/06/26 12:04:20;;;;;;;6.40;3.78;;;34.70;45.70;;;;;;6201147;28;20711;-77
2023/06/26 12:07:22;;;;;;;4.20;3.60;;;34.60;45.20;;;;;;6218036;28;20521;-78
2023/06/26 12:10:26;;;;;;;6.97;3.25;;;34.30;45.30;;;;;;6208887;28;20106;-77
2023/06/26 12:13:28;;;;;;;5.47;3.58;;;34.40;45.00;;;;;;6201478;28;20060;-77
2023/06/26 12:16:31;;;;;;;4.47;3.95;;;34.20;44.90;;;;;;6207909;28;20192;-78
2023/06/26 12:19:32;;;;;;;10.02;3.83;;;34.20;45.10;;;;;;6205926;28;20177;-78
2023/06/26 12:22:35;;;;;;;5.68;2.75;;;34.40;44.60;;;;;;6213016;28;20033;-79
2023/06/26 12:25:38;;;;;;;8.80;3.50;;;34.40;45.20;;;;;;6229199;28;20057;-78
2023/06/26 12:28:40;;;;;;;4.95;3.20;;;34.50;44.10;;;;;;6226652;28;20390;-78
2023/06/26 12:31:43;;;;;;;4.50;3.25;;;34.50;43.80;;;;;;6225393;28;20132;-78
2023/06/26 12:34:49;;;;;;;4.78;3.35;;;34.50;43.20;;;;;;6223796;28;20053;-76
2023/06/26 12:37:51;;;;;;;8.02;3.28;;;34.40;43.10;;;;;;6224250;28;20065;-78
2023/06/26 12:40:57;;;;;;;7.70;4.13;;;34.40;43.70;;;;;;6205565;28;20389;-78
2023/06/26 12:43:59;;;;;;;4.53;3.25;;;34.80;43.10;;;;;;6202693;28;20049;-79
2023/06/26 12:47:02;;;;;;;6.18;2.58;;;34.90;43.10;;;;;;6201620;28;20046;-77
2023/06/26 12:50:07;;;;;;;6.95;3.65;;;34.70;42.70;;;;;;6228430;28;20050;-79
2023/06/26 12:53:08;;;;;;;6.75;3.70;;;34.60;43.20;;;;;;6229658;28;20057;-79
2023/06/26 12:56:12;;;;;;;6.70;3.15;;;34.40;43.40;;;;;;6228966;28;20045;-79
2023/06/26 12:59:13;;;;;;;4.57;3.30;;;34.70;43.50;;;;;;6229214;28;20069;-79
2023/06/26 13:02:15;;;;;;;6.30;3.35;;;34.70;43.20;;;;;;6229431;28;20245;-78
2023/06/26 13:05:17;;;;;;;23.48;4.72;;;35.00;43.00;;;;;;6209924;28;20049;-78
2023/06/26 13:08:19;;;;;;;8.77;4.75;;;35.00;42.80;;;;;;6219769;28;20054;-78
2023/06/26 13:11:22;;;;;;;14.57;4.90;;;35.00;42.30;;;;;;6218155;28;20056;-78
2023/06/26 13:14:24;;;;;;;6.30;3.58;;;34.80;42.50;;;;;;6219043;28;20042;-77
2023/06/26 13:17:25;;;;;;;8.43;4.25;;;34.80;42.30;;;;;;6222645;28;20041;-78
2023/06/26 13:20:27;;;;;;;8.20;3.30;;;34.80;42.00;;;;;;6214710;28;20536;-77
2023/06/26 13:23:29;;;;;;;9.27;3.30;;;34.80;42.00;;;;;;6217001;28;20440;-77
2023/06/26 13:26:33;;;;;;;6.88;4.18;;;34.70;42.30;;;;;;6210330;28;20053;-78
2023/06/26 13:29:34;;;;;;;6.13;3.42;;;34.80;43.00;;;;;;6211428;28;20626;-77
2023/06/26 13:32:36;;;;;;;5.93;4.50;;;35.00;42.00;;;;;;6210884;28;20042;-77
2023/06/26 13:35:38;;;;;;;6.93;5.00;;;34.70;41.80;;;;;;6210719;28;20060;-76
2023/06/26 13:38:41;;;;;;;5.55;5.05;;;34.60;42.10;;;;;;6214601;28;20041;-77
2023/06/26 13:41:44;;;;;;;11.25;5.05;;;34.50;41.80;;;;;;6215236;28;20058;-77
2023/06/26 13:44:45;;;;;;;6.78;5.38;;;34.40;42.30;;;;;;6214410;28;20050;-77
2023/06/26 13:47:47;;;;;;;6.70;4.97;;;34.30;42.80;;;;;;6213702;28;20061;-77
2023/06/26 13:50:49;;;;;;;5.63;5.03;;;34.20;42.30;;;;;;6215643;28;20052;-77
2023/06/26 13:53:50;;;;;;;13.93;5.88;;;34.00;42.20;;;;;;6213730;28;20046;-77
2023/06/26 13:56:57;;;;;;;7.07;5.97;;;33.90;42.80;;;;;;6215502;28;20045;-76
2023/06/26 13:59:58;;;;;;;9.20;5.07;;;34.10;42.90;;;;;;6213093;28;20046;-76
2023/06/26 14:03:00;;;;;;;9.65;5.10;;;34.10;43.00;;;;;;6215072;28;20049;-77
2023/06/26 14:06:02;;;;;;;9.00;5.47;;;34.20;42.80;;;;;;6212341;28;20060;-76
2023/06/26 14:09:04;;;;;;;13.80;5.68;;;34.10;43.00;;;;;;6214416;28;20057;-77
2023/06/26 14:12:08;;;;;;;6.68;5.60;;;34.10;42.70;;;;;;6213468;28;20050;-76
2023/06/26 14:15:11;;;;;;;8.32;4.78;;;34.00;42.80;;;;;;6213540;28;20052;-76
2023/06/26 14:18:13;;;;;;;8.30;5.45;;;34.00;43.00;;;;;;6213126;28;20038;-76
2023/06/26 14:21:14;;;;;;;13.02;6.53;;;34.00;43.20;;;;;;6214088;28;20045;-77
2023/06/26 14:24:16;;;;;;;8.32;4.50;;;34.00;43.20;;;;;;6212770;28;20044;-77
2023/06/26 14:27:19;;;;;;;6.82;5.85;;;33.90;43.20;;;;;;6213029;28;20053;-76
2023/06/26 14:30:21;;;;;;;11.15;5.45;;;33.70;43.00;;;;;;6213305;28;20053;-78
2023/06/26 14:33:23;;;;;;;7.50;5.20;;;33.50;43.20;;;;;;6218077;28;20497;-79
2023/06/26 14:36:27;;;;;;;7.78;6.20;;;33.40;42.70;;;;;;6217897;28;20072;-76
2023/06/26 14:39:32;;;;;;;10.27;5.65;;;33.20;43.30;;;;;;6216721;28;20060;-79
2023/06/26 14:42:35;;;;;;;7.28;4.90;;;33.00;42.70;;;;;;6216844;28;20058;-77
2023/06/26 14:45:37;;;;;;;8.23;5.18;;;32.80;42.70;;;;;;6215210;28;20420;-79
2023/06/26 14:48:38;;;;;;;8.55;4.80;;;32.70;42.90;;;;;;6217179;28;20049;-76
2023/06/26 14:51:40;;;;;;;9.70;4.50;;;32.70;42.80;;;;;;6218131;28;20041;-79
2023/06/26 14:54:42;;;;;;;4.95;3.78;;;32.70;42.80;;;;;;6218684;28;20142;-76
2023/06/26 14:57:45;;;;;;;6.18;3.45;;;32.70;42.60;;;;;;6212895;28;20155;-77
2023/06/26 15:00:48;;;;;;;5.85;3.35;;;32.70;42.00;;;;;;6214931;28;20057;-77
2023/06/26 15:03:49;;;;;;;7.45;3.53;;;32.50;42.10;;;;;;6212709;28;20133;-78
2023/06/26 15:06:53;;;;;;;4.97;2.88;;;32.60;41.70;;;;;;6212206;28;20041;-77
2023/06/26 15:09:55;;;;;;;6.47;2.17;;;32.70;41.10;;;;;;6216846;28;20516;-80
2023/06/26 15:12:58;;;;;;;4.47;2.10;;;32.70;40.20;;;;;;6215164;28;20041;-80
2023/06/26 15:16:00;;;;;;;6.10;2.13;;;32.60;39.80;;;;;;6214588;28;20524;-78
2023/06/26 15:19:02;;;;;;;5.95;2.10;;;32.50;39.50;;;;;;6213076;28;20046;-76
2023/06/26 15:22:03;;;;;;;3.65;2.50;;;32.40;39.30;;;;;;6211608;28;20042;-78
2023/06/26 15:25:06;;;;;;;5.00;1.80;;;32.30;38.90;;;;;;6214442;28;20061;-77
2023/06/26 15:28:09;;;;;;;5.57;1.67;;;32.20;37.80;;;;;;6213827;28;20053;-77
2023/06/26 15:31:11;;;;;;;6.55;1.70;;;32.10;37.40;;;;;;6216239;28;20049;-79
2023/06/26 15:34:13;;;;;;;7.65;1.60;;;31.90;37.50;;;;;;6214446;28;20057;-77
2023/06/26 15:37:15;;;;;;;1.63;1.40;;;31.70;36.40;;;;;;6215999;28;20046;-77
2023/06/26 15:40:17;;;;;;;3.78;2.22;;;31.50;36.00;;;;;;6215044;28;20045;-78
2023/06/26 15:43:20;;;;;;;6.28;1.60;;;31.50;35.80;;;;;;6214736;28;20049;-77
2023/06/26 15:46:22;;;;;;;4.03;1.45;;;31.60;35.50;;;;;;6213443;28;20061;-80